sensor_id;sensor_type;location;lat;lon;timestamp;pressure;altitude;pressure_sealevel;temperature;humidity
75136;BME280;63707;52.212;9.540;2024-01-30T00:00:08;101887.91;;;5.97;100.00
75136;BME280;63707;52.212;9.540;2024-01-30T00:02:34;101894.53;;;6.05;100.00
75136;BME280;63707;52.212;9.540;2024-01-30T00:05:00;101891.34;;;5.99;100.00
75136;BME280;63707;52.212;9.540;2024-01-30T00:07:25;101896.03;;;5.97;100.00
75136;BME280;63707;52.212;9.540;2024-01-30T00:09:51;101895.72;;;5.91;100.00
75136;BME280;63707;52.212;9.540;2024-01-30T00:12:16;101900.38;;;5.89;100.00
75136;BME280;63707;52.212;9.540;2024-01-30T00:14:42;101896.75;;;5.99;100.00
75136;BME280;63707;52.212;9.540;2024-01-30T00:17:12;101888.25;;;6.04;100.00
75136;BME280;63707;52.212;9.540;2024-01-30T00:19:37;101896.63;;;6.01;100.00
75136;BME280;63707;52.212;9.540;2024-01-30T00:22:03;101896.63;;;6.01;100.00
75136;BME280;63707;52.212;9.540;2024-01-30T00:24:28;101895.31;;;5.95;100.00
75136;BME280;63707;52.212;9.540;2024-01-30T00:26:54;101891.75;;;5.95;100.00
75136;BME280;63707;52.212;9.540;2024-01-30T00:29:19;101896.31;;;5.94;100.00
75136;BME280;63707;52.212;9.540;2024-01-30T00:31:45;101905.03;;;5.87;100.00
75136;BME280;63707;52.212;9.540;2024-01-30T00:34:12;101904.44;;;5.83;100.00
75136;BME280;63707;52.212;9.540;2024-01-30T00:36:37;101911.97;;;5.80;100.00
75136;BME280;63707;52.212;9.540;2024-01-30T00:39:03;101912.09;;;5.78;100.00
75136;BME280;63707;52.212;9.540;2024-01-30T00:41:31;101912.19;;;5.88;100.00
75136;BME280;63707;52.212;9.540;2024-01-30T00:43:57;101912.38;;;5.75;100.00
75136;BME280;63707;52.212;9.540;2024-01-30T00:46:22;101919.97;;;5.81;100.00
75136;BME280;63707;52.212;9.540;2024-01-30T00:48:47;101916.31;;;5.71;100.00
75136;BME280;63707;52.212;9.540;2024-01-30T00:51:14;101908.41;;;5.79;100.00
75136;BME280;63707;52.212;9.540;2024-01-30T00:53:40;101903.66;;;5.72;100.00
75136;BME280;63707;52.212;9.540;2024-01-30T00:56:07;101909.66;;;5.75;100.00
75136;BME280;63707;52.212;9.540;2024-01-30T00:58:33;101905.84;;;5.78;100.00
75136;BME280;63707;52.212;9.540;2024-01-30T01:00:58;101920.75;;;5.72;100.00
75136;BME280;63707;52.212;9.540;2024-01-30T01:03:24;101920.38;;;5.65;100.00
75136;BME280;63707;52.212;9.540;2024-01-30T01:05:49;101911.56;;;5.84;100.00
75136;BME280;63707;52.212;9.540;2024-01-30T01:08:16;101924.44;;;5.71;100.00
75136;BME280;63707;52.212;9.540;2024-01-30T01:10:41;101920.13;;;5.68;100.00
75136;BME280;63707;52.212;9.540;2024-01-30T01:13:07;101926.50;;;5.67;100.00
75136;BME280;63707;52.212;9.540;2024-01-30T01:15:32;101927.88;;;5.73;100.00
75136;BME280;63707;52.212;9.540;2024-01-30T01:17:58;101927.41;;;5.68;100.00
75136;BME280;63707;52.212;9.540;2024-01-30T01:20:23;101934.53;;;5.69;100.00
75136;BME280;63707;52.212;9.540;2024-01-30T01:22:49;101938.56;;;5.75;100.00
75136;BME280;63707;52.212;9.540;2024-01-30T01:25:16;101934.16;;;5.62;100.00
75136;BME280;63707;52.212;9.540;2024-01-30T01:27:41;101943.84;;;5.65;100.00
75136;BME280;63707;52.212;9.540;2024-01-30T01:30:09;101931.31;;;5.64;100.00
75136;BME280;63707;52.212;9.540;2024-01-30T01:32:35;101929.19;;;5.79;100.00
75136;BME280;63707;52.212;9.540;2024-01-30T01:35:01;101936.97;;;5.61;100.00
75136;BME280;63707;52.212;9.540;2024-01-30T01:37:27;101932.56;;;5.60;100.00
75136;BME280;63707;52.212;9.540;2024-01-30T01:39:53;101932.44;;;5.61;100.00
75136;BME280;63707;52.212;9.540;2024-01-30T01:42:19;101940.94;;;5.57;100.00
75136;BME280;63707;52.212;9.540;2024-01-30T01:44:45;101931.81;;;5.69;100.00
75136;BME280;63707;52.212;9.540;2024-01-30T01:47:11;101924.56;;;5.69;100.00
75136;BME280;63707;52.212;9.540;2024-01-30T01:49:37;101925.31;;;5.60;100.00
75136;BME280;63707;52.212;9.540;2024-01-30T01:52:03;101927.88;;;5.62;100.00
75136;BME280;63707;52.212;9.540;2024-01-30T01:54:30;101918.66;;;5.64;100.00
75136;BME280;63707;52.212;9.540;2024-01-30T01:56:56;101913.25;;;5.64;100.00
75136;BME280;63707;52.212;9.540;2024-01-30T01:59:23;101916.72;;;5.55;100.00
75136;BME280;63707;52.212;9.540;2024-01-30T02:01:50;101911.44;;;5.54;100.00
75136;BME280;63707;52.212;9.540;2024-01-30T02:04:17;101910.50;;;5.44;100.00
75136;BME280;63707;52.212;9.540;2024-01-30T02:06:43;101914.75;;;5.57;100.00
75136;BME280;63707;52.212;9.540;2024-01-30T02:09:08;101904.91;;;5.56;100.00
75136;BME280;63707;52.212;9.540;2024-01-30T02:11:34;101904.19;;;5.54;100.00
75136;BME280;63707;52.212;9.540;2024-01-30T02:14:02;101901.75;;;5.51;100.00
75136;BME280;63707;52.212;9.540;2024-01-30T02:16:29;101900.63;;;5.54;100.00
75136;BME280;63707;52.212;9.540;2024-01-30T02:18:55;101891.47;;;5.66;100.00
75136;BME280;63707;52.212;9.540;2024-01-30T02:21:22;101882.00;;;5.72;100.00
75136;BME280;63707;52.212;9.540;2024-01-30T02:23:47;101887.91;;;5.65;100.00
75136;BME280;63707;52.212;9.540;2024-01-30T02:26:13;101880.31;;;5.71;100.00
75136;BME280;63707;52.212;9.540;2024-01-30T02:28:39;101871.13;;;5.83;100.00
75136;BME280;63707;52.212;9.540;2024-01-30T02:31:05;101869.94;;;5.76;100.00
75136;BME280;63707;52.212;9.540;2024-01-30T02:33:30;101871.13;;;5.83;100.00
75136;BME280;63707;52.212;9.540;2024-01-30T02:35:56;101865.13;;;5.79;100.00
75136;BME280;63707;52.212;9.540;2024-01-30T02:38:23;101867.50;;;5.73;100.00
75136;BME280;63707;52.212;9.540;2024-01-30T02:40:49;101864.81;;;5.73;100.00
75136;BME280;63707;52.212;9.540;2024-01-30T02:43:15;101870.06;;;5.74;100.00
75136;BME280;63707;52.212;9.540;2024-01-30T02:45:41;101863.69;;;5.75;100.00
75136;BME280;63707;52.212;9.540;2024-01-30T02:48:07;101863.03;;;5.83;100.00
75136;BME280;63707;52.212;9.540;2024-01-30T02:50:32;101858.06;;;5.88;100.00
75136;BME280;63707;52.212;9.540;2024-01-30T02:52:58;101861.69;;;5.77;100.00
75136;BME280;63707;52.212;9.540;2024-01-30T02:55:25;101846.66;;;5.84;100.00
75136;BME280;63707;52.212;9.540;2024-01-30T02:57:50;101860.56;;;5.80;100.00
75136;BME280;63707;52.212;9.540;2024-01-30T03:00:16;101853.59;;;5.77;100.00
75136;BME280;63707;52.212;9.540;2024-01-30T03:02:41;101855.56;;;5.75;100.00
75136;BME280;63707;52.212;9.540;2024-01-30T03:05:08;101857.88;;;5.80;100.00
75136;BME280;63707;52.212;9.540;2024-01-30T03:07:33;101851.06;;;5.85;100.00
75136;BME280;63707;52.212;9.540;2024-01-30T03:09:59;101843.34;;;5.81;100.00
75136;BME280;63707;52.212;9.540;2024-01-30T03:12:26;101841.19;;;5.75;100.00
75136;BME280;63707;52.212;9.540;2024-01-30T03:14:51;101847.13;;;5.68;100.00
75136;BME280;63707;52.212;9.540;2024-01-30T03:17:17;101855.97;;;5.71;100.00
75136;BME280;63707;52.212;9.540;2024-01-30T03:19:43;101845.00;;;5.72;100.00
75136;BME280;63707;52.212;9.540;2024-01-30T03:22:08;101842.91;;;5.76;100.00
75136;BME280;63707;52.212;9.540;2024-01-30T03:24:34;101826.53;;;5.77;100.00
75136;BME280;63707;52.212;9.540;2024-01-30T03:26:59;101831.75;;;5.69;100.00
75136;BME280;63707;52.212;9.540;2024-01-30T03:29:26;101840.50;;;5.61;100.00
75136;BME280;63707;52.212;9.540;2024-01-30T03:31:52;101832.97;;;5.65;100.00
75136;BME280;63707;52.212;9.540;2024-01-30T03:34:17;101822.78;;;5.68;100.00
75136;BME280;63707;52.212;9.540;2024-01-30T03:36:42;101830.41;;;5.63;100.00
75136;BME280;63707;52.212;9.540;2024-01-30T03:39:08;101819.81;;;5.72;100.00
75136;BME280;63707;52.212;9.540;2024-01-30T03:41:33;101823.88;;;5.66;100.00
75136;BME280;63707;52.212;9.540;2024-01-30T03:43:59;101830.78;;;5.59;100.00
75136;BME280;63707;52.212;9.540;2024-01-30T03:46:26;101833.22;;;5.62;100.00
75136;BME280;63707;52.212;9.540;2024-01-30T03:48:51;101825.06;;;5.52;100.00
75136;BME280;63707;52.212;9.540;2024-01-30T03:51:17;101827.03;;;5.50;100.00
75136;BME280;63707;52.212;9.540;2024-01-30T03:53:43;101828.88;;;5.50;100.00
75136;BME280;63707;52.212;9.540;2024-01-30T03:56:08;101827.28;;;5.47;100.00
75136;BME280;63707;52.212;9.540;2024-01-30T03:58:34;101829.09;;;5.58;100.00
75136;BME280;63707;52.212;9.540;2024-01-30T04:00:59;101825.78;;;5.54;100.00
75136;BME280;63707;52.212;9.540;2024-01-30T04:03:26;101825.06;;;5.52;100.00
75136;BME280;63707;52.212;9.540;2024-01-30T04:05:52;101819.06;;;5.49;100.00
75136;BME280;63707;52.212;9.540;2024-01-30T04:08:18;101821.56;;;5.41;100.00
75136;BME280;63707;52.212;9.540;2024-01-30T04:10:43;101824.91;;;5.33;100.00
75136;BME280;63707;52.212;9.540;2024-01-30T04:13:09;101828.47;;;5.33;100.00
75136;BME280;63707;52.212;9.540;2024-01-30T04:15:35;101825.69;;;5.24;100.00
75136;BME280;63707;52.212;9.540;2024-01-30T04:18:00;101834.75;;;4.80;100.00
75136;BME280;63707;52.212;9.540;2024-01-30T04:20:28;101847.75;;;4.86;100.00
75136;BME280;63707;52.212;9.540;2024-01-30T04:22:53;101855.41;;;4.36;100.00
75136;BME280;63707;52.212;9.540;2024-01-30T04:25:19;101883.56;;;4.09;100.00
75136;BME280;63707;52.212;9.540;2024-01-30T04:27:44;101903.13;;;3.89;100.00
75136;BME280;63707;52.212;9.540;2024-01-30T04:30:10;101930.72;;;3.93;100.00
75136;BME280;63707;52.212;9.540;2024-01-30T04:32:36;101950.69;;;3.90;100.00
75136;BME280;63707;52.212;9.540;2024-01-30T04:35:02;101954.88;;;4.40;100.00
75136;BME280;63707;52.212;9.540;2024-01-30T04:37:29;101941.78;;;4.81;100.00
75136;BME280;63707;52.212;9.540;2024-01-30T04:39:55;101919.94;;;4.95;100.00
75136;BME280;63707;52.212;9.540;2024-01-30T04:42:20;101899.75;;;5.10;100.00
75136;BME280;63707;52.212;9.540;2024-01-30T04:44:46;101869.91;;;5.12;100.00
75136;BME280;63707;52.212;9.540;2024-01-30T04:47:11;101862.16;;;5.29;100.00
75136;BME280;63707;52.212;9.540;2024-01-30T04:49:38;101854.81;;;5.20;100.00
75136;BME280;63707;52.212;9.540;2024-01-30T04:52:04;101853.69;;;5.12;100.00
75136;BME280;63707;52.212;9.540;2024-01-30T04:54:31;101859.63;;;5.05;100.00
75136;BME280;63707;52.212;9.540;2024-01-30T04:56:57;101856.28;;;5.13;100.00
75136;BME280;63707;52.212;9.540;2024-01-30T04:59:22;101865.09;;;5.15;100.00
75136;BME280;63707;52.212;9.540;2024-01-30T05:01:48;101852.25;;;5.07;100.00
75136;BME280;63707;52.212;9.540;2024-01-30T05:04:13;101860.47;;;5.06;100.00
75136;BME280;63707;52.212;9.540;2024-01-30T05:06:39;101896.47;;;5.50;100.00
75136;BME280;63707;52.212;9.540;2024-01-30T05:09:04;101853.91;;;5.20;100.00
75136;BME280;63707;52.212;9.540;2024-01-30T05:11:31;101855.28;;;5.25;100.00
75136;BME280;63707;52.212;9.540;2024-01-30T05:14:01;101862.66;;;5.12;100.00
75136;BME280;63707;52.212;9.540;2024-01-30T05:16:27;101869.34;;;4.97;100.00
75136;BME280;63707;52.212;9.540;2024-01-30T05:18:53;101874.63;;;4.98;100.00
75136;BME280;63707;52.212;9.540;2024-01-30T05:21:18;101871.41;;;5.04;100.00
75136;BME280;63707;52.212;9.540;2024-01-30T05:23:44;101873.28;;;4.93;100.00
75136;BME280;63707;52.212;9.540;2024-01-30T05:26:09;101876.84;;;4.93;100.00
75136;BME280;63707;52.212;9.540;2024-01-30T05:28:36;101865.63;;;5.20;100.00
75136;BME280;63707;52.212;9.540;2024-01-30T05:31:03;101858.97;;;5.13;100.00
75136;BME280;63707;52.212;9.540;2024-01-30T05:33:28;101858.97;;;5.13;100.00
75136;BME280;63707;52.212;9.540;2024-01-30T05:35:54;101853.44;;;5.15;100.00
75136;BME280;63707;52.212;9.540;2024-01-30T05:38:19;101851.84;;;5.12;100.00
75136;BME280;63707;52.212;9.540;2024-01-30T05:40:45;101858.25;;;5.11;100.00
75136;BME280;63707;52.212;9.540;2024-01-30T05:43:11;101861.47;;;5.05;100.00
75136;BME280;63707;52.212;9.540;2024-01-30T05:45:38;101868.22;;;4.99;100.00
75136;BME280;63707;52.212;9.540;2024-01-30T05:48:04;101866.25;;;5.01;100.00
75136;BME280;63707;52.212;9.540;2024-01-30T05:50:29;101880.63;;;5.02;100.00
75136;BME280;63707;52.212;9.540;2024-01-30T05:52:56;101869.91;;;5.12;100.00
75136;BME280;63707;52.212;9.540;2024-01-30T05:55:22;101864.78;;;4.97;100.00
75136;BME280;63707;52.212;9.540;2024-01-30T05:57:47;101874.75;;;4.86;100.00
75136;BME280;63707;52.212;9.540;2024-01-30T06:00:14;101881.38;;;4.93;100.00
75136;BME280;63707;52.212;9.540;2024-01-30T06:02:41;101874.75;;;4.86;100.00
75136;BME280;63707;52.212;9.540;2024-01-30T06:05:07;101873.44;;;4.80;100.00
75136;BME280;63707;52.212;9.540;2024-01-30T06:07:32;101875.75;;;4.85;100.00
75136;BME280;63707;52.212;9.540;2024-01-30T06:09:58;101871.34;;;4.84;100.00
75136;BME280;63707;52.212;9.540;2024-01-30T06:12:25;101882.38;;;4.81;100.00
75136;BME280;63707;52.212;9.540;2024-01-30T06:14:51;101883.09;;;4.71;100.00
75136;BME280;63707;52.212;9.540;2024-01-30T06:17:19;101886.78;;;4.70;100.00
75136;BME280;63707;52.212;9.540;2024-01-30T06:19:46;101892.44;;;4.67;100.00
75136;BME280;63707;52.212;9.540;2024-01-30T06:22:11;101889.75;;;4.79;100.00
75136;BME280;63707;52.212;9.540;2024-01-30T06:24:37;101889.50;;;4.82;100.00
75136;BME280;63707;52.212;9.540;2024-01-30T06:27:03;101878.69;;;4.70;100.00
75136;BME280;63707;52.212;9.540;2024-01-30T06:29:29;101876.50;;;4.76;100.00
75136;BME280;63707;52.212;9.540;2024-01-30T06:31:54;101885.34;;;4.78;100.00
75136;BME280;63707;52.212;9.540;2024-01-30T06:34:21;101877.19;;;5.00;100.00
75136;BME280;63707;52.212;9.540;2024-01-30T06:36:47;101865.31;;;4.80;100.00
75136;BME280;63707;52.212;9.540;2024-01-30T06:39:13;101876.84;;;4.71;100.00
75136;BME280;63707;52.212;9.540;2024-01-30T06:41:38;101874.50;;;4.89;100.00
75136;BME280;63707;52.212;9.540;2024-01-30T06:44:04;101864.72;;;4.77;100.00
75136;BME280;63707;52.212;9.540;2024-01-30T06:46:31;101887.28;;;4.87;100.00
75136;BME280;63707;52.212;9.540;2024-01-30T06:48:57;101877.84;;;4.81;100.00
75136;BME280;63707;52.212;9.540;2024-01-30T06:51:23;101878.44;;;4.96;100.00
75136;BME280;63707;52.212;9.540;2024-01-30T06:53:50;101873.06;;;4.85;100.00
75136;BME280;63707;52.212;9.540;2024-01-30T06:56:15;101882.97;;;4.95;100.00
75136;BME280;63707;52.212;9.540;2024-01-30T06:58:46;101868.59;;;4.95;100.00
75136;BME280;63707;52.212;9.540;2024-01-30T07:01:11;101865.16;;;5.04;100.00
75136;BME280;63707;52.212;9.540;2024-01-30T07:03:37;101858.41;;;4.98;100.00
75136;BME280;63707;52.212;9.540;2024-01-30T07:06:02;101862.69;;;5.01;100.00
75136;BME280;63707;52.212;9.540;2024-01-30T07:08:28;101851.63;;;5.04;100.00
75136;BME280;63707;52.212;9.540;2024-01-30T07:10:54;101855.84;;;4.97;100.00
75136;BME280;63707;52.212;9.540;2024-01-30T07:13:21;101851.97;;;5.11;100.00
75136;BME280;63707;52.212;9.540;2024-01-30T07:15:46;101850.66;;;5.05;100.00
75136;BME280;63707;52.212;9.540;2024-01-30T07:18:12;101845.84;;;5.09;100.00
75136;BME280;63707;52.212;9.540;2024-01-30T07:20:38;101830.84;;;5.16;100.00
75136;BME280;63707;52.212;9.540;2024-01-30T07:23:10;101832.56;;;5.17;100.00
75136;BME280;63707;52.212;9.540;2024-01-30T07:25:39;101823.34;;;5.19;100.00
75136;BME280;63707;52.212;9.540;2024-01-30T07:28:08;101827.78;;;5.20;100.00
75136;BME280;63707;52.212;9.540;2024-01-30T07:30:35;101825.09;;;5.20;100.00
75136;BME280;63707;52.212;9.540;2024-01-30T07:33:00;101819.28;;;5.25;100.00
75136;BME280;63707;52.212;9.540;2024-01-30T07:35:26;101812.59;;;5.40;100.00
75136;BME280;63707;52.212;9.540;2024-01-30T07:37:51;101809.03;;;5.40;100.00
75136;BME280;63707;52.212;9.540;2024-01-30T07:40:17;101809.34;;;5.46;100.00
75136;BME280;63707;52.212;9.540;2024-01-30T07:42:43;101803.81;;;5.48;100.00
75136;BME280;63707;52.212;9.540;2024-01-30T07:45:10;101798.22;;;5.60;100.00
75136;BME280;63707;52.212;9.540;2024-01-30T07:47:35;101797.09;;;5.63;100.00
75136;BME280;63707;52.212;9.540;2024-01-30T07:50:01;101790.97;;;5.61;100.00
75136;BME280;63707;52.212;9.540;2024-01-30T07:52:27;101794.13;;;5.66;100.00
75136;BME280;63707;52.212;9.540;2024-01-30T07:54:52;101789.94;;;5.73;100.00
75136;BME280;63707;52.212;9.540;2024-01-30T07:57:18;101785.97;;;5.77;100.00
75136;BME280;63707;52.212;9.540;2024-01-30T07:59:43;101795.25;;;5.84;100.00
75136;BME280;63707;52.212;9.540;2024-01-30T08:02:12;101788.09;;;5.94;100.00
75136;BME280;63707;52.212;9.540;2024-01-30T08:04:37;101777.84;;;5.98;100.00
75136;BME280;63707;52.212;9.540;2024-01-30T08:07:03;101777.16;;;6.06;100.00
75136;BME280;63707;52.212;9.540;2024-01-30T08:09:28;101779.47;;;6.10;100.00
75136;BME280;63707;52.212;9.540;2024-01-30T08:11:54;101765.94;;;6.10;100.00
75136;BME280;63707;52.212;9.540;2024-01-30T08:14:19;101762.44;;;6.19;100.00
75136;BME280;63707;52.212;9.540;2024-01-30T08:16:45;101761.03;;;6.25;100.00
75136;BME280;63707;52.212;9.540;2024-01-30T08:19:12;101770.88;;;6.26;100.00
75136;BME280;63707;52.212;9.540;2024-01-30T08:21:37;101771.03;;;6.34;100.00
75136;BME280;63707;52.212;9.540;2024-01-30T08:24:03;101767.22;;;6.46;100.00
75136;BME280;63707;52.212;9.540;2024-01-30T08:26:29;101772.34;;;6.40;100.00
75136;BME280;63707;52.212;9.540;2024-01-30T08:28:55;101769.63;;;6.40;100.00
75136;BME280;63707;52.212;9.540;2024-01-30T08:31:20;101775.78;;;6.42;100.00
75136;BME280;63707;52.212;9.540;2024-01-30T08:33:46;101766.25;;;6.57;100.00
75136;BME280;63707;52.212;9.540;2024-01-30T08:36:12;101767.38;;;6.45;100.00
75136;BME280;63707;52.212;9.540;2024-01-30T08:38:38;101763.56;;;6.57;100.00
75136;BME280;63707;52.212;9.540;2024-01-30T08:41:04;101755.41;;;6.47;100.00
75136;BME280;63707;52.212;9.540;2024-01-30T08:43:30;101760.41;;;6.52;100.00
75136;BME280;63707;52.212;9.540;2024-01-30T08:45:58;101766.69;;;6.62;100.00
75136;BME280;63707;52.212;9.540;2024-01-30T08:48:24;101768.94;;;6.47;100.00
75136;BME280;63707;52.212;9.540;2024-01-30T08:50:50;101776.31;;;6.36;100.00
75136;BME280;63707;52.212;9.540;2024-01-30T08:53:17;101772.22;;;6.41;100.00
75136;BME280;63707;52.212;9.540;2024-01-30T08:55:42;101770.50;;;6.50;100.00
75136;BME280;63707;52.212;9.540;2024-01-30T08:58:08;101755.13;;;6.50;100.00
75136;BME280;63707;52.212;9.540;2024-01-30T09:00:33;101752.91;;;6.65;100.00
75136;BME280;63707;52.212;9.540;2024-01-30T09:02:59;101763.81;;;6.44;100.00
75136;BME280;63707;52.212;9.540;2024-01-30T09:05:24;101750.00;;;6.57;100.00
75136;BME280;63707;52.212;9.540;2024-01-30T09:07:50;101748.88;;;6.59;100.00
75136;BME280;63707;52.212;9.540;2024-01-30T09:10:17;101757.19;;;6.77;100.00
75136;BME280;63707;52.212;9.540;2024-01-30T09:12:42;101756.19;;;6.78;100.00
75136;BME280;63707;52.212;9.540;2024-01-30T09:15:09;101757.47;;;6.74;100.00
75136;BME280;63707;52.212;9.540;2024-01-30T09:17:34;101754.22;;;6.90;100.00
75136;BME280;63707;52.212;9.540;2024-01-30T09:20:00;101749.66;;;6.90;100.00
75136;BME280;63707;52.212;9.540;2024-01-30T09:22:25;101738.09;;;7.08;100.00
75136;BME280;63707;52.212;9.540;2024-01-30T09:24:51;101725.69;;;7.05;100.00
75136;BME280;63707;52.212;9.540;2024-01-30T09:27:18;101722.84;;;7.16;100.00
75136;BME280;63707;52.212;9.540;2024-01-30T09:29:43;101723.72;;;7.17;100.00
75136;BME280;63707;52.212;9.540;2024-01-30T09:32:09;101721.56;;;7.01;100.00
75136;BME280;63707;52.212;9.540;2024-01-30T09:34:34;101737.41;;;7.15;100.00
75136;BME280;63707;52.212;9.540;2024-01-30T09:37:00;101733.84;;;7.24;100.00
75136;BME280;63707;52.212;9.540;2024-01-30T09:39:25;101729.25;;;7.35;100.00
75136;BME280;63707;52.212;9.540;2024-01-30T09:41:55;101731.41;;;7.31;100.00
75136;BME280;63707;52.212;9.540;2024-01-30T09:44:28;101729.69;;;7.40;100.00
75136;BME280;63707;52.212;9.540;2024-01-30T09:46:54;101720.97;;;7.46;100.00
75136;BME280;63707;52.212;9.540;2024-01-30T09:49:20;101722.09;;;7.53;100.00
75136;BME280;63707;52.212;9.540;2024-01-30T09:51:48;101717.66;;;7.52;100.00
75136;BME280;63707;52.212;9.540;2024-01-30T09:54:14;101718.25;;;7.46;100.00
75136;BME280;63707;52.212;9.540;2024-01-30T09:56:40;101723.22;;;7.60;100.00
75136;BME280;63707;52.212;9.540;2024-01-30T09:59:06;101721.66;;;7.48;100.00
75136;BME280;63707;52.212;9.540;2024-01-30T10:01:34;101710.53;;;7.41;100.00
75136;BME280;63707;52.212;9.540;2024-01-30T10:03:59;101722.38;;;7.60;100.00
75136;BME280;63707;52.212;9.540;2024-01-30T10:06:26;101710.22;;;7.54;100.00
75136;BME280;63707;52.212;9.540;2024-01-30T10:08:53;101718.78;;;7.69;100.00
75136;BME280;63707;52.212;9.540;2024-01-30T10:11:18;101711.94;;;7.65;100.00
75136;BME280;63707;52.212;9.540;2024-01-30T10:13:43;101713.94;;;7.63;100.00
75136;BME280;63707;52.212;9.540;2024-01-30T10:16:09;101722.19;;;7.71;100.00
75136;BME280;63707;52.212;9.540;2024-01-30T10:18:36;101699.50;;;8.09;100.00
75136;BME280;63707;52.212;9.540;2024-01-30T10:21:01;101687.88;;;8.16;100.00
75136;BME280;63707;52.212;9.540;2024-01-30T10:23:28;101698.22;;;8.03;100.00
75136;BME280;63707;52.212;9.540;2024-01-30T10:25:54;101686.75;;;7.82;100.00
75136;BME280;63707;52.212;9.540;2024-01-30T10:28:21;101672.81;;;8.04;100.00
75136;BME280;63707;52.212;9.540;2024-01-30T10:30:47;101687.78;;;8.08;100.00
75136;BME280;63707;52.212;9.540;2024-01-30T10:33:22;101679.13;;;8.23;100.00
75136;BME280;63707;52.212;9.540;2024-01-30T10:35:49;101663.97;;;7.93;100.00
75136;BME280;63707;52.212;9.540;2024-01-30T10:38:17;101660.22;;;8.03;100.00
75136;BME280;63707;52.212;9.540;2024-01-30T10:40:45;101662.59;;;8.16;100.00
75136;BME280;63707;52.212;9.540;2024-01-30T10:43:15;101652.84;;;8.23;100.00
75136;BME280;63707;52.212;9.540;2024-01-30T10:45:47;101662.19;;;8.11;100.00
75136;BME280;63707;52.212;9.540;2024-01-30T10:48:16;101651.13;;;8.22;100.00
75136;BME280;63707;52.212;9.540;2024-01-30T10:50:45;101652.84;;;8.23;100.00
75136;BME280;63707;52.212;9.540;2024-01-30T10:53:12;101652.44;;;8.18;100.00
75136;BME280;63707;52.212;9.540;2024-01-30T10:55:38;101657.94;;;8.08;100.00
75136;BME280;63707;52.212;9.540;2024-01-30T10:58:05;101655.84;;;8.20;100.00
75136;BME280;63707;52.212;9.540;2024-01-30T11:00:30;101657.78;;;8.10;100.00
75136;BME280;63707;52.212;9.540;2024-01-30T11:02:58;101665.16;;;8.17;100.00
75136;BME280;63707;52.212;9.540;2024-01-30T11:05:24;101666.88;;;8.18;100.00
75136;BME280;63707;52.212;9.540;2024-01-30T11:07:51;101670.53;;;8.27;100.00
75136;BME280;63707;52.212;9.540;2024-01-30T11:10:18;101656.88;;;8.19;100.00
75136;BME280;63707;52.212;9.540;2024-01-30T11:12:46;101664.78;;;8.30;100.00
75136;BME280;63707;52.212;9.540;2024-01-30T11:15:12;101647.88;;;8.18;100.00
75136;BME280;63707;52.212;9.540;2024-01-30T11:17:49;101662.38;;;8.27;100.00
75136;BME280;63707;52.212;9.540;2024-01-30T11:20:20;101664.16;;;8.18;100.00
75136;BME280;63707;52.212;9.540;2024-01-30T11:22:49;101668.50;;;8.11;100.00
75136;BME280;63707;52.212;9.540;2024-01-30T11:25:15;101664.06;;;8.10;100.00
75136;BME280;63707;52.212;9.540;2024-01-30T11:27:43;101671.53;;;8.26;100.00
75136;BME280;63707;52.212;9.540;2024-01-30T11:30:09;101660.28;;;8.21;100.00
75136;BME280;63707;52.212;9.540;2024-01-30T11:32:34;101662.03;;;8.40;100.00
75136;BME280;63707;52.212;9.540;2024-01-30T11:35:00;101652.28;;;8.47;100.00
75136;BME280;63707;52.212;9.540;2024-01-30T11:37:28;101635.00;;;8.66;100.00
75136;BME280;63707;52.212;9.540;2024-01-30T11:39:56;101640.44;;;8.66;100.00
75136;BME280;63707;52.212;9.540;2024-01-30T11:42:23;101635.69;;;8.68;100.00
75136;BME280;63707;52.212;9.540;2024-01-30T11:44:53;101621.94;;;9.05;100.00
75136;BME280;63707;52.212;9.540;2024-01-30T11:47:19;101586.91;;;9.02;100.00
75136;BME280;63707;52.212;9.540;2024-01-30T11:49:44;101577.75;;;9.63;100.00
75136;BME280;63707;52.212;9.540;2024-01-30T11:52:10;101583.63;;;9.50;100.00
75136;BME280;63707;52.212;9.540;2024-01-30T11:54:39;101567.78;;;9.79;100.00
75136;BME280;63707;52.212;9.540;2024-01-30T11:57:05;101567.88;;;9.62;100.00
75136;BME280;63707;52.212;9.540;2024-01-30T11:59:30;101556.69;;;9.73;100.00
75136;BME280;63707;52.212;9.540;2024-01-30T12:01:57;101559.09;;;9.84;100.00
75136;BME280;63707;52.212;9.540;2024-01-30T12:04:22;101550.69;;;9.61;100.00
75136;BME280;63707;52.212;9.540;2024-01-30T12:06:51;101545.28;;;9.69;100.00
75136;BME280;63707;52.212;9.540;2024-01-30T12:09:17;101554.63;;;9.67;100.00
75136;BME280;63707;52.212;9.540;2024-01-30T12:11:45;101567.53;;;9.65;100.00
75136;BME280;63707;52.212;9.540;2024-01-30T12:14:11;101553.25;;;10.13;100.00
75136;BME280;63707;52.212;9.540;2024-01-30T12:16:37;101562.78;;;9.67;100.00
75136;BME280;63707;52.212;9.540;2024-01-30T12:19:04;101562.28;;;9.71;100.00
75136;BME280;63707;52.212;9.540;2024-01-30T12:21:29;101546.09;;;10.12;100.00
75136;BME280;63707;52.212;9.540;2024-01-30T12:23:55;101563.03;;;9.90;100.00
75136;BME280;63707;52.212;9.540;2024-01-30T12:26:21;101565.38;;;9.76;100.00
75136;BME280;63707;52.212;9.540;2024-01-30T12:28:48;101585.41;;;9.67;100.00
75136;BME280;63707;52.212;9.540;2024-01-30T12:31:14;101605.97;;;9.36;100.00
75136;BME280;63707;52.212;9.540;2024-01-30T12:33:39;101596.09;;;9.61;100.00
75136;BME280;63707;52.212;9.540;2024-01-30T12:36:07;101596.84;;;9.45;100.00
75136;BME280;63707;52.212;9.540;2024-01-30T12:38:32;101604.47;;;9.67;100.00
75136;BME280;63707;52.212;9.540;2024-01-30T12:40:58;101600.25;;;9.73;100.00
75136;BME280;63707;52.212;9.540;2024-01-30T12:43:24;101601.94;;;10.16;100.00